createdAt,value
2022-09-28T04:06:14.689Z,99666.03
2022-09-28T04:09:08.416Z,99672.00
2022-09-28T04:11:59.432Z,99667.19
2022-09-28T04:14:24.637Z,99665.34
2022-09-28T04:16:54.831Z,99669.50
2022-09-28T04:19:24.030Z,99671.66
2022-09-28T04:22:10.284Z,99663.97
2022-09-28T04:24:39.028Z,99672.06
2022-09-28T04:27:25.401Z,99667.69
2022-09-28T04:29:52.756Z,99663.47
2022-09-28T04:32:20.081Z,99663.03
2022-09-28T04:34:47.881Z,99664.84
2022-09-28T04:37:15.575Z,99660.97
2022-09-28T04:39:48.071Z,99669.69
2022-09-28T04:42:18.256Z,99670.69
2022-09-28T04:44:46.133Z,99680.13
2022-09-28T04:47:13.732Z,99679.28
2022-09-28T04:50:00.327Z,99689.69
2022-09-28T04:52:36.424Z,99688.06
2022-09-28T04:55:05.675Z,99692.06
2022-09-28T04:57:36.744Z,99695.97
2022-09-28T05:00:05.493Z,99708.34
2022-09-28T05:02:35.809Z,99705.25
2022-09-28T05:05:44.751Z,99720.34
2022-09-28T05:08:46.865Z,99724.34
2022-09-28T05:11:14.896Z,99713.31
2022-09-28T05:13:45.809Z,99708.66
2022-09-28T05:16:16.829Z,99704.00
2022-09-28T05:19:02.504Z,99696.84
2022-09-28T05:21:31.043Z,99692.06
2022-09-28T05:23:58.936Z,99695.97
2022-09-28T05:26:26.942Z,99698.47
2022-09-28T05:28:54.850Z,99695.06
2022-09-28T05:31:42.407Z,99695.97
2022-09-28T05:34:28.074Z,99690.25
2022-09-28T05:36:57.597Z,99689.31
2022-09-28T05:39:24.860Z,99687.91
2022-09-28T05:41:52.186Z,99690.41
2022-09-28T05:44:19.901Z,99686.53
2022-09-28T05:46:48.719Z,99685.19
2022-09-28T05:49:17.591Z,99674.91
2022-09-28T05:51:45.103Z,99680.47
2022-09-28T05:54:12.486Z,99681.59
2022-09-28T05:56:43.736Z,99681.69
2022-09-28T05:59:12.195Z,99681.69
2022-09-28T06:01:39.615Z,99676.63
2022-09-28T06:04:09.709Z,99671.16
2022-09-28T06:06:38.785Z,99685.09
2022-09-28T06:09:06.033Z,99686.16
2022-09-28T06:11:45.664Z,99680.53
2022-09-28T06:14:39.292Z,99688.09
2022-09-28T06:17:06.604Z,99698.72
2022-09-28T06:19:34.220Z,99694.31
2022-09-28T06:22:20.033Z,99701.06
2022-09-28T06:25:00.897Z,99695.09
2022-09-28T06:27:28.676Z,99691.22
2022-09-28T06:29:56.196Z,99671.38
2022-09-28T06:32:24.953Z,99672.53
2022-09-28T06:34:56.210Z,99668.72
2022-09-28T06:37:27.168Z,99671.84
2022-09-28T06:39:55.368Z,99679.56
2022-09-28T06:42:23.333Z,99673.72
2022-09-28T06:45:19.997Z,99676.03
2022-09-28T06:48:11.241Z,99683.25
2022-09-28T06:50:41.520Z,99684.94
2022-09-28T06:53:47.613Z,99683.16
2022-09-28T06:56:33.019Z,99680.94
2022-09-28T06:59:00.791Z,99679.78
2022-09-28T07:01:29.154Z,99678.09
2022-09-28T07:04:20.215Z,99679.13
2022-09-28T07:07:08.670Z,99682.22
2022-09-28T07:09:49.392Z,99676.47
2022-09-28T07:12:39.763Z,99673.56
2022-09-28T07:15:25.190Z,99676.91
2022-09-28T07:18:03.063Z,99674.84
2022-09-28T07:20:44.248Z,99682.84
2022-09-28T07:23:19.815Z,99673.97
2022-09-28T07:26:08.772Z,99669.53
2022-09-28T07:28:55.849Z,99677.13
2022-09-28T07:31:33.724Z,99673.63
2022-09-28T07:34:39.993Z,99674.28
2022-09-28T07:37:27.816Z,99674.03
2022-09-28T07:40:14.020Z,99675.75
2022-09-28T07:42:42.489Z,99677.41
2022-09-28T07:45:11.408Z,99673.41
2022-09-28T07:47:38.628Z,99678.66
2022-09-28T07:50:25.240Z,99690.06
2022-09-28T07:53:04.029Z,99693.00
2022-09-28T07:55:41.892Z,99697.00
2022-09-28T07:58:13.916Z,99696.84
2022-09-28T08:00:54.542Z,99696.22
2022-09-28T08:03:22.542Z,99693.81
2022-09-28T08:05:50.119Z,99699.44
2022-09-28T08:08:18.466Z,99707.41
2022-09-28T08:10:47.504Z,99706.41
2022-09-28T08:13:33.529Z,99717.50
2022-09-28T08:16:15.070Z,99721.53
2022-09-28T08:18:54.052Z,99716.38
2022-09-28T08:21:41.528Z,99716.41
2022-09-28T08:24:09.691Z,99710.66
2022-09-28T08:26:37.088Z,99725.13
2022-09-28T08:29:04.381Z,99718.34
2022-09-28T08:31:43.909Z,99721.41
2022-09-28T08:34:23.272Z,99726.06
2022-09-28T08:37:09.600Z,99722.53
2022-09-28T08:39:57.536Z,99715.06
2022-09-28T08:42:45.715Z,99712.28
2022-09-28T08:45:33.588Z,99713.09
2022-09-28T08:49:06.642Z,99698.13
2022-09-28T08:52:13.403Z,99707.50
2022-09-28T08:55:32.071Z,99711.09
2022-09-28T08:58:12.620Z,99709.69
2022-09-28T09:00:50.867Z,99705.59
2022-09-28T09:03:31.570Z,99697.25
2022-09-28T09:06:23.891Z,99701.81
2022-09-28T09:09:13.367Z,99696.41
2022-09-28T09:11:45.389Z,99694.41
2022-09-28T09:14:31.575Z,99686.88
2022-09-28T09:17:14.389Z,99687.22
2022-09-28T09:20:12.709Z,99680.34
2022-09-28T09:23:18.501Z,99678.25
2022-09-28T09:25:55.094Z,99683.75
2022-09-28T09:28:39.116Z,99679.59
2022-09-28T09:31:08.502Z,99674.09
2022-09-28T09:34:01.302Z,99671.06
2022-09-28T09:37:13.999Z,99670.28
2022-09-28T09:40:32.735Z,99673.41
2022-09-28T09:43:58.928Z,99672.34
2022-09-28T09:47:07.976Z,99667.69
2022-09-28T09:50:05.367Z,99665.09
2022-09-28T09:53:16.992Z,99659.13
2022-09-28T09:55:50.564Z,99659.03
2022-09-28T09:58:37.079Z,99654.31
2022-09-28T10:01:34.376Z,99645.72
2022-09-28T10:04:23.903Z,99637.72
2022-09-28T10:06:58.704Z,99635.44
2022-09-28T10:09:31.953Z,99631.13
2022-09-28T10:12:20.845Z,99632.28
2022-09-28T10:14:48.376Z,99622.69
2022-09-28T10:17:18.327Z,99621.41
2022-09-28T10:20:04.880Z,99620.47
2022-09-28T10:22:32.251Z,99608.88
2022-09-28T10:25:08.892Z,99608.84
2022-09-28T10:27:44.377Z,99621.19
2022-09-28T10:30:23.193Z,99619.75
2022-09-28T10:32:55.098Z,99614.63
2022-09-28T10:35:29.609Z,99606.53
2022-09-28T10:38:06.797Z,99610.41
2022-09-28T10:41:11.296Z,99616.84
2022-09-28T10:44:06.380Z,99604.09
2022-09-28T10:46:44.635Z,99607.41
2022-09-28T10:49:18.663Z,99609.00
2022-09-28T10:51:58.548Z,99603.22
2022-09-28T10:54:32.364Z,99606.13
2022-09-28T10:57:01.541Z,99621.47
2022-09-28T10:59:41.724Z,99605.91
2022-09-28T11:02:36.370Z,99605.53
2022-09-28T11:05:21.846Z,99597.63
2022-09-28T11:07:52.341Z,99594.00
2022-09-28T11:10:29.332Z,99588.22
2022-09-28T11:13:03.416Z,99589.16
2022-09-28T11:15:33.536Z,99583.91
2022-09-28T11:18:32.252Z,99583.50
2022-09-28T11:21:16.158Z,99574.50
2022-09-28T11:24:14.390Z,99574.50
2022-09-28T11:26:48.005Z,99565.47
2022-09-28T11:29:24.700Z,99564.03
2022-09-28T11:32:15.480Z,99563.00
2022-09-28T11:35:02.962Z,99569.44
2022-09-28T11:37:52.204Z,99564.94
2022-09-28T11:41:16.549Z,99567.00
2022-09-28T11:43:56.660Z,99563.28
2022-09-28T11:47:03.928Z,99562.94
2022-09-28T11:49:43.656Z,99561.22
2022-09-28T11:52:27.549Z,99565.28
2022-09-28T11:55:05.324Z,99559.66
2022-09-28T11:57:38.491Z,99559.47
2022-09-28T12:00:22.483Z,99542.94
2022-09-28T12:03:13.562Z,99549.75
2022-09-28T12:06:03.868Z,99537.94
2022-09-28T12:08:37.358Z,99533.34
2022-09-28T12:11:18.233Z,99534.94
2022-09-28T12:14:27.307Z,99530.28
2022-09-28T12:17:07.766Z,99537.03
2022-09-28T12:19:48.086Z,99532.50
2022-09-28T12:22:21.283Z,99530.31
2022-09-28T12:24:55.468Z,99523.66
2022-09-28T12:27:27.724Z,99519.53
2022-09-28T12:30:19.353Z,99521.66
2022-09-28T12:33:04.310Z,99518.47
2022-09-28T12:35:55.744Z,99509.31
2022-09-28T12:38:28.793Z,99514.03
2022-09-28T12:41:08.647Z,99517.25
2022-09-28T12:43:56.029Z,99518.53
2022-09-28T12:46:49.164Z,99519.53
2022-09-28T12:52:32.126Z,99523.06
2022-09-28T12:55:06.506Z,99521.28
2022-09-28T12:58:04.292Z,99515.78
2022-09-28T13:00:41.167Z,99516.44
2022-09-28T13:03:20.204Z,99508.22
2022-09-28T13:06:26.688Z,99504.09
2022-09-28T13:09:23.825Z,99505.38
2022-09-28T13:12:00.905Z,99506.31
2022-09-28T13:14:37.956Z,99505.25
2022-09-28T13:17:40.868Z,99503.34
2022-09-28T13:20:44.830Z,99509.59
2022-09-28T13:23:25.639Z,99495.19
2022-09-28T13:26:07.043Z,99492.38
2022-09-28T13:28:34.619Z,99475.88
2022-09-28T13:31:03.072Z,99473.94
2022-09-28T13:33:36.934Z,99473.63
2022-09-28T13:36:27.771Z,99460.50
2022-09-28T13:38:57.004Z,99467.78
2022-09-28T13:41:31.752Z,99463.19
2022-09-28T13:44:41.846Z,99471.59
2022-09-28T13:47:38.318Z,99436.41
2022-09-28T13:50:25.570Z,99268.19
2022-09-28T13:53:08.909Z,99236.09
2022-09-28T13:56:15.217Z,99214.88
2022-09-28T13:58:55.221Z,99210.94
2022-09-28T14:01:25.144Z,99218.41
2022-09-28T14:03:57.268Z,99217.84
2022-09-28T14:06:30.754Z,99233.03
2022-09-28T14:08:58.344Z,99402.50
2022-09-28T14:11:34.909Z,99395.78
2022-09-28T14:14:05.777Z,99241.69
2022-09-28T14:16:34.060Z,99249.66
2022-09-28T14:19:13.465Z,99298.50
2022-09-28T14:22:02.585Z,99296.03
2022-09-28T14:24:32.904Z,99384.22
2022-09-28T14:27:32.445Z,99406.63
2022-09-28T14:30:46.616Z,99397.38
2022-09-28T14:33:29.364Z,99364.09
2022-09-28T14:36:02.600Z,99376.75
2022-09-28T14:39:06.259Z,99396.44
2022-09-28T14:41:36.557Z,99380.59
2022-09-28T14:44:09.508Z,99384.69
2022-09-28T14:46:39.153Z,99389.31
2022-09-28T14:49:26.339Z,99379.00
2022-09-28T14:51:54.104Z,99390.00
2022-09-28T14:54:27.326Z,99385.19
2022-09-28T14:56:56.991Z,99383.38
2022-09-28T14:59:30.868Z,99383.56
2022-09-28T15:02:05.636Z,99379.50
2022-09-28T15:04:39.029Z,99383.28
2022-09-28T15:07:06.445Z,99390.91
2022-09-28T15:09:37.492Z,99394.25
2022-09-28T15:12:13.042Z,99380.59
2022-09-28T15:14:46.579Z,99389.66
2022-09-28T15:17:21.321Z,99386.91
2022-09-28T15:20:20.943Z,99385.09
2022-09-28T15:22:51.461Z,99389.75
2022-09-28T15:25:22.084Z,99389.59
2022-09-28T15:27:55.383Z,99387.75
2022-09-28T15:30:28.769Z,99388.25
2022-09-28T15:33:17.597Z,99394.38
2022-09-28T15:35:49.865Z,99397.53
2022-09-28T15:38:17.545Z,99393.06
2022-09-28T15:40:47.690Z,99392.97
2022-09-28T15:43:32.791Z,99393.59
2022-09-28T15:46:13.579Z,99392.47
2022-09-28T15:48:55.555Z,99391.66
2022-09-28T15:51:24.534Z,99387.44
2022-09-28T15:53:58.549Z,99394.34
2022-09-28T15:56:27.491Z,99389.84
2022-09-28T15:59:15.780Z,99393.88
2022-09-28T16:01:44.677Z,99386.59
2022-09-28T16:04:38.439Z,99382.63
2022-09-28T16:07:26.161Z,99393.56
2022-09-28T16:09:58.468Z,99394.75
2022-09-28T16:12:38.038Z,99392.88
2022-09-28T16:15:14.832Z,99394.41
2022-09-28T16:17:43.084Z,99394.72
2022-09-28T16:20:29.447Z,99402.50
2022-09-28T16:23:05.704Z,99389.28
2022-09-28T16:25:37.064Z,99393.41
2022-09-28T16:28:05.334Z,99389.44
2022-09-28T16:30:34.554Z,99395.88
2022-09-28T16:33:25.876Z,99390.75
2022-09-28T16:35:53.525Z,99387.22
2022-09-28T16:38:21.535Z,99389.44
2022-09-28T16:40:54.969Z,99388.59
2022-09-28T16:43:27.675Z,99384.88
2022-09-28T16:45:58.349Z,99390.47
2022-09-28T16:48:28.781Z,99394.28
2022-09-28T16:50:57.867Z,99395.56
2022-09-28T16:53:44.625Z,99399.16
2022-09-28T16:56:13.344Z,99408.38
2022-09-28T16:58:42.405Z,99409.16
2022-09-28T17:01:11.474Z,99406.53
2022-09-28T17:03:42.243Z,99403.31
2022-09-28T17:06:12.475Z,99407.56
2022-09-28T17:08:40.376Z,99409.59
2022-09-28T17:11:18.038Z,99415.19
2022-09-28T17:13:50.301Z,99420.88
2022-09-28T17:16:43.565Z,99423.94
2022-09-28T17:19:19.516Z,99423.84
2022-09-28T17:21:47.238Z,99429.56
2022-09-28T17:24:14.928Z,99419.75
2022-09-28T17:26:44.771Z,99428.31
2022-09-28T17:29:14.730Z,99416.81
2022-09-28T17:31:43.803Z,99415.28
2022-09-28T17:34:13.327Z,99415.06
2022-09-28T17:36:42.388Z,99415.16
2022-09-28T17:39:18.946Z,99406.84
2022-09-28T17:41:46.617Z,99411.22
2022-09-28T17:44:15.908Z,99404.72
2022-09-28T17:46:47.633Z,99404.81
2022-09-28T17:49:15.656Z,99412.81
2022-09-28T17:51:42.852Z,99411.41
2022-09-28T17:54:11.109Z,99411.28
2022-09-28T17:56:38.443Z,99408.63
2022-09-28T17:59:08.136Z,99411.34
2022-09-28T18:01:38.859Z,99404.13
2022-09-28T18:04:08.741Z,99411.50
2022-09-28T18:06:39.631Z,99403.59
2022-09-28T18:09:08.800Z,99421.16
2022-09-28T18:11:42.353Z,99418.00
2022-09-28T18:14:11.350Z,99421.69
2022-09-28T18:16:38.913Z,99424.75
2022-09-28T18:19:06.238Z,99423.31
2022-09-28T18:21:33.597Z,99433.03
2022-09-28T18:24:01.391Z,99432.44
2022-09-28T18:26:28.684Z,99437.47
2022-09-28T18:28:56.114Z,99433.56
2022-09-28T18:31:23.585Z,99433.13
2022-09-28T18:33:51.552Z,99433.31
2022-09-28T18:36:19.176Z,99432.81
2022-09-28T18:38:46.407Z,99436.59
2022-09-28T18:41:15.909Z,99436.47
2022-09-28T18:43:49.061Z,99438.78
2022-09-28T18:46:20.133Z,99445.69
2022-09-28T18:48:47.888Z,99443.63
2022-09-28T18:51:15.306Z,99441.44
2022-09-28T18:53:42.510Z,99438.75
2022-09-28T18:56:12.310Z,99437.72
2022-09-28T18:58:40.971Z,99446.22
2022-09-28T19:01:29.322Z,99451.31
2022-09-28T19:04:00.491Z,99437.03
2022-09-28T19:06:28.827Z,99447.03
2022-09-28T19:08:56.844Z,99445.88
2022-09-28T19:11:25.595Z,99446.94
2022-09-28T19:13:54.319Z,99449.44
2022-09-28T19:16:27.224Z,99448.84
2022-09-28T19:18:59.110Z,99458.44
2022-09-28T19:21:27.069Z,99457.88
2022-09-28T19:23:55.479Z,99454.38
2022-09-28T19:26:25.357Z,99467.47
2022-09-28T19:28:54.011Z,99459.34
2022-09-28T19:31:22.560Z,99454.72
2022-09-28T19:33:50.477Z,99454.19
2022-09-28T19:36:23.450Z,99453.09
2022-09-28T19:38:55.763Z,99449.78
2022-09-28T19:41:43.358Z,99444.59
2022-09-28T19:44:27.380Z,99453.75
2022-09-28T19:47:10.020Z,99451.75
2022-09-28T19:49:39.941Z,99436.09
2022-09-28T19:52:16.573Z,99436.16
2022-09-28T19:54:56.647Z,99441.38
2022-09-28T19:57:27.754Z,99433.72
2022-09-28T20:00:00.850Z,99432.88
2022-09-28T20:02:34.177Z,99430.00
2022-09-28T20:05:01.978Z,99429.94
2022-09-28T20:07:32.746Z,99434.06
2022-09-28T20:10:00.146Z,99438.78
2022-09-28T20:12:27.391Z,99443.13
2022-09-28T20:14:54.672Z,99444.56
2022-09-28T20:17:22.266Z,99447.00
2022-09-28T20:19:51.649Z,99444.53
2022-09-28T20:22:19.990Z,99441.72
2022-09-28T20:24:47.722Z,99432.34
2022-09-28T20:27:14.965Z,99415.31
2022-09-28T20:29:43.275Z,99422.50
2022-09-28T20:32:11.490Z,99412.31
2022-09-28T20:34:39.197Z,99425.00
2022-09-28T20:37:06.716Z,99431.88
2022-09-28T20:39:34.596Z,99445.13
2022-09-28T20:42:02.786Z,99446.22
2022-09-28T20:44:30.895Z,99435.78
2022-09-28T20:46:58.447Z,99437.44
2022-09-28T20:49:27.972Z,99443.47
2022-09-28T20:51:55.870Z,99442.94
2022-09-28T20:54:23.443Z,99441.28
2022-09-28T20:56:51.512Z,99438.25
2022-09-28T20:59:20.130Z,99431.88
2022-09-28T21:01:48.441Z,99441.53
2022-09-28T21:04:15.715Z,99431.63
2022-09-28T21:06:43.431Z,99442.94
2022-09-28T21:09:12.132Z,99439.06
2022-09-28T21:11:40.173Z,99440.41
2022-09-28T21:14:10.266Z,99454.50
2022-09-28T21:16:38.107Z,99458.34
2022-09-28T21:19:06.462Z,99463.28
2022-09-28T21:21:33.723Z,99462.44
2022-09-28T21:24:01.968Z,99451.72
2022-09-28T21:26:31.171Z,99457.25
2022-09-28T21:29:01.072Z,99450.09
2022-09-28T21:31:40.113Z,99451.19
2022-09-28T21:34:13.336Z,99459.69
2022-09-28T21:36:43.449Z,99456.38
2022-09-28T21:39:10.880Z,99456.69
2022-09-28T21:41:38.706Z,99451.47
2022-09-28T21:44:06.956Z,99452.00
2022-09-28T21:46:35.529Z,99452.53
2022-09-28T21:49:05.030Z,99444.56
2022-09-28T21:51:33.349Z,99449.53
2022-09-28T21:54:00.652Z,99460.28
2022-09-28T21:56:27.980Z,99452.84
2022-09-28T21:58:55.366Z,99463.53
2022-09-28T22:01:25.739Z,99474.28
2022-09-28T22:03:55.865Z,99474.81
2022-09-28T22:06:28.052Z,99469.06
2022-09-28T22:08:57.435Z,99477.31
2022-09-28T22:11:27.534Z,99479.50
2022-09-28T22:13:58.255Z,99478.13
